Time;durP1;ratioP1;P1;durP2;ratioP2;P2;SDS_P1;SDS_P2;PMS_P1;PMS_P2;Temp;Humidity;BMP_temperature;BMP_pressure;BME280_temperature;BME280_humidity;BME280_pressure;Samples;Min_cycle;Max_cycle;Signal;HPM_P1;HPM_P2
2023/01/14 00:01:33;;;;;;;27.92;15.15;;;;;;;6.08;80.92;101362.91;5112369;28;20027;-82
2023/01/14 00:03:58;;;;;;;26.33;15.93;;;;;;;6.03;81.29;101350.63;5112754;28;20395;-82
2023/01/14 00:06:27;;;;;;;26.90;14.50;;;;;;;5.99;80.62;101348.22;5112109;28;20082;-81
2023/01/14 00:08:55;;;;;;;30.80;15.73;;;;;;;5.98;80.48;101351.81;5112309;28;20521;-82
2023/01/14 00:11:45;;;;;;;33.50;16.02;;;;;;;5.95;80.44;101343.97;5112008;28;20051;-82
2023/01/14 00:14:05;;;;;;;27.02;15.30;;;;;;;5.91;79.82;101353.06;5111873;28;20642;-83
2023/01/14 00:16:31;;;;;;;24.92;15.75;;;;;;;5.89;79.77;101350.47;5112416;28;20027;-83
2023/01/14 00:18:56;;;;;;;23.67;15.05;;;;;;;5.85;80.06;101348.00;5112189;28;20133;-82
2023/01/14 00:21:22;;;;;;;31.02;17.80;;;;;;;5.81;80.20;101359.78;5111607;28;20032;-82
2023/01/14 00:23:47;;;;;;;30.23;15.90;;;;;;;5.76;80.47;101354.66;5112022;28;20068;-82
2023/01/14 00:26:15;;;;;;;24.40;14.77;;;;;;;5.79;80.27;101348.31;5112328;28;20028;-83
2023/01/14 00:28:45;;;;;;;30.83;15.10;;;;;;;5.77;80.33;101356.41;5111746;28;20107;-84
2023/01/14 00:31:16;;;;;;;27.10;16.38;;;;;;;5.81;80.50;101357.13;5102179;28;20153;-82
2023/01/14 00:33:43;;;;;;;27.20;16.58;;;;;;;5.76;80.46;101359.13;5111731;28;20088;-83
2023/01/14 00:36:11;;;;;;;24.70;14.80;;;;;;;5.81;80.52;101362.47;5111683;28;20042;-82
2023/01/14 00:38:37;;;;;;;26.98;15.40;;;;;;;5.73;80.43;101343.28;5111610;28;20026;-83
2023/01/14 00:41:10;;;;;;;27.63;15.25;;;;;;;5.78;80.58;101346.59;5112096;28;20058;-82
2023/01/14 00:43:37;;;;;;;25.08;15.75;;;;;;;5.83;80.73;101347.22;5111098;28;20084;-82
2023/01/14 00:46:05;;;;;;;26.65;15.18;;;;;;;5.79;80.72;101348.31;5110797;28;20028;-83
2023/01/14 00:48:32;;;;;;;26.33;15.60;;;;;;;5.80;81.07;101358.06;5093050;28;20026;-82
2023/01/14 00:50:57;;;;;;;25.60;15.27;;;;;;;5.78;80.85;101357.28;5087684;28;20067;-83
2023/01/14 00:53:23;;;;;;;24.85;14.30;;;;;;;5.77;80.18;101350.19;5111076;28;20473;-82
2023/01/14 00:55:48;;;;;;;23.25;13.70;;;;;;;5.69;80.07;101347.91;5094533;28;20028;-82
2023/01/14 00:58:14;;;;;;;22.63;13.82;;;;;;;5.71;80.55;101350.50;5110679;28;20028;-81
2023/01/14 01:00:39;;;;;;;27.52;15.63;;;;;;;5.61;80.08;101349.22;5111366;28;20452;-82
2023/01/14 01:03:05;;;;;;;29.30;15.63;;;;;;;5.60;80.55;101343.03;5111345;28;20035;-82
2023/01/14 01:05:38;;;;;;;26.92;14.90;;;;;;;5.61;80.84;101343.88;5111077;28;20031;-84
2023/01/14 01:08:05;;;;;;;22.13;12.40;;;;;;;5.58;80.42;101344.03;5094311;28;20058;-83
2023/01/14 01:10:34;;;;;;;21.42;13.05;;;;;;;5.58;80.56;101344.91;5105598;28;20044;-83
2023/01/14 01:13:00;;;;;;;26.88;13.95;;;;;;;5.57;80.27;101335.16;5081684;28;20035;-81
2023/01/14 01:15:25;;;;;;;21.90;12.52;;;;;;;5.60;80.92;101336.81;5110843;28;20084;-82
2023/01/14 01:17:51;;;;;;;20.42;12.73;;;;;;;5.61;80.79;101331.41;5109901;28;20019;-81
2023/01/14 01:20:16;;;;;;;21.20;12.15;;;;;;;5.64;80.56;101323.25;5100080;27;20027;-80
2023/01/14 01:22:42;;;;;;;21.13;13.13;;;;;;;5.70;80.50;101332.75;5111323;27;20081;-83
2023/01/14 01:25:08;;;;;;;22.20;13.18;;;;;;;5.70;80.57;101324.75;5122049;27;20043;-82
2023/01/14 01:27:33;;;;;;;25.23;15.30;;;;;;;5.76;80.68;101325.31;5110383;28;20473;-82
2023/01/14 01:29:59;;;;;;;25.85;15.15;;;;;;;5.80;81.39;101326.03;5110989;28;20081;-81
2023/01/14 01:32:25;;;;;;;21.15;12.60;;;;;;;5.80;81.88;101312.69;5110519;28;20129;-81
2023/01/14 01:34:50;;;;;;;19.45;12.85;;;;;;;5.89;81.63;101317.59;5116278;27;20087;-82
2023/01/14 01:37:16;;;;;;;23.02;12.60;;;;;;;5.94;80.93;101310.19;5131440;27;20110;-82
2023/01/14 01:39:41;;;;;;;21.02;12.30;;;;;;;5.99;80.64;101316.19;5131233;27;20027;-82
2023/01/14 01:42:13;;;;;;;17.48;11.50;;;;;;;6.06;80.30;101314.03;5131307;27;20027;-83
2023/01/14 01:44:41;;;;;;;20.35;11.18;;;;;;;6.11;79.74;101307.53;5127824;27;20027;-82
2023/01/14 01:47:08;;;;;;;19.10;11.88;;;;;;;6.13;79.60;101308.31;5131592;27;20026;-82
2023/01/14 01:49:36;;;;;;;18.45;11.00;;;;;;;6.23;79.55;101306.03;5131332;27;20110;-82
2023/01/14 01:52:14;;;;;;;21.50;11.10;;;;;;;6.27;79.17;101300.41;5131446;27;20073;-81
2023/01/14 01:54:47;;;;;;;16.10;10.98;;;;;;;6.26;78.61;101306.72;5097523;28;20031;-81
2023/01/14 01:57:15;;;;;;;20.77;12.15;;;;;;;6.18;78.37;101292.03;5110250;28;20414;-81
2023/01/14 01:59:44;;;;;;;21.63;12.23;;;;;;;6.07;78.20;101300.63;5110940;28;20024;-83
2023/01/14 02:02:11;;;;;;;15.63;10.35;;;;;;;5.96;78.59;101303.00;5110839;28;20055;-82
2023/01/14 02:04:37;;;;;;;18.30;12.30;;;;;;;5.87;79.10;101293.63;5110508;28;20062;-82
2023/01/14 02:07:02;;;;;;;20.20;12.45;;;;;;;5.97;78.98;101294.88;5110921;28;20058;-82
2023/01/14 02:09:29;;;;;;;19.27;11.55;;;;;;;5.85;79.05;101294.59;5110880;28;20034;-82
2023/01/14 02:12:19;;;;;;;22.35;12.38;;;;;;;5.78;79.25;101293.22;5128525;28;20484;-82
2023/01/14 02:15:05;;;;;;;22.25;12.55;;;;;;;5.84;79.33;101298.25;5130969;28;20034;-82
2023/01/14 02:17:33;;;;;;;18.52;12.82;;;;;;;5.82;79.25;101295.63;5131117;28;20081;-82
2023/01/14 02:20:18;;;;;;;18.23;10.98;;;;;;;5.78;79.78;101286.03;5130757;28;20486;-82
2023/01/14 02:22:58;;;;;;;20.95;11.95;;;;;;;5.75;79.31;101294.22;5131136;28;20081;-82
2023/01/14 02:25:57;;;;;;;19.85;11.43;;;;;;;5.71;79.53;101302.47;5130939;28;20029;-82
2023/01/14 02:28:41;;;;;;;15.30;9.40;;;;;;;5.69;79.66;101304.38;5131571;28;20053;-82
2023/01/14 02:31:17;;;;;;;19.52;11.10;;;;;;;5.65;80.27;101297.44;5126885;28;20499;-81
2023/01/14 02:33:49;;;;;;;19.00;10.93;;;;;;;5.58;80.54;101302.22;5131583;28;20102;-83
2023/01/14 02:36:14;;;;;;;;;;;;;;;5.62;80.96;101302.94;5139087;28;20007;-82
2023/01/14 02:39:15;;;;;;;18.67;10.83;;;;;;;5.66;81.01;101299.16;5155201;28;19907;-83
2023/01/14 02:44:39;;;;;;;22.08;11.80;;;;;;;5.73;81.23;101296.09;5038213;28;20086;-82
2023/01/14 02:47:13;;;;;;;21.98;11.25;;;;;;;5.74;81.20;101292.50;5041448;28;20038;-82
2023/01/14 02:49:42;;;;;;;17.55;9.32;;;;;;;5.58;81.40;101294.22;5035076;28;20064;-82
2023/01/14 02:52:08;;;;;;;18.40;9.00;;;;;;;5.52;81.69;101296.31;5031600;28;20049;-81
2023/01/14 02:54:34;;;;;;;16.13;10.35;;;;;;;5.45;81.83;101301.97;5030555;28;20036;-82
2023/01/14 02:57:32;;;;;;;19.35;11.55;;;;;;;5.55;82.25;101304.16;5030900;28;20068;-81
2023/01/14 03:00:09;;;;;;;17.45;9.95;;;;;;;5.61;82.52;101295.84;4955250;28;20049;-81
2023/01/14 03:02:52;;;;;;;17.48;11.32;;;;;;;5.69;82.36;101301.69;4954488;28;20170;-82
2023/01/14 03:05:37;;;;;;;16.08;11.10;;;;;;;5.70;82.16;101300.72;4952379;29;20249;-82
2023/01/14 03:08:08;;;;;;;21.00;11.90;;;;;;;5.79;81.91;101308.28;4935780;29;20039;-81
2023/01/14 03:10:40;;;;;;;16.70;10.25;;;;;;;5.68;81.36;101307.97;4952484;28;20035;-82
2023/01/14 03:13:13;;;;;;;;;;;;;;;5.61;81.02;101314.53;4937183;28;20035;-81
2023/01/14 03:15:51;;;;;;;16.50;9.60;;;;;;;5.58;80.58;101306.69;4952630;29;19918;-83
2023/01/14 03:18:31;;;;;;;15.40;9.75;;;;;;;5.52;81.00;101315.88;4970899;28;20046;-82
2023/01/14 03:21:03;;;;;;;13.27;9.10;;;;;;;5.58;81.11;101318.22;4994157;28;20505;-82
2023/01/14 03:23:33;;;;;;;14.82;9.15;;;;;;;5.40;81.20;101314.66;5010772;28;20045;-80
2023/01/14 03:26:01;;;;;;;14.75;8.75;;;;;;;5.35;81.74;101313.19;5010838;28;20049;-81
2023/01/14 03:28:36;;;;;;;12.82;8.80;;;;;;;5.34;81.56;101312.31;5010599;28;20041;-82
2023/01/14 03:31:10;;;;;;;14.40;9.13;;;;;;;5.34;81.78;101317.63;5010679;28;20046;-82
2023/01/14 03:33:42;;;;;;;14.77;9.68;;;;;;;5.20;81.98;101312.09;5010445;28;20095;-82
2023/01/14 03:36:09;;;;;;;;;;;;;;;5.27;82.54;101324.19;5027747;28;20040;-83
2023/01/14 03:38:46;;;;;;;16.17;8.95;;;;;;;5.37;82.69;101316.63;5092545;28;20014;-81
2023/01/14 03:42:17;;;;;;;15.40;8.77;;;;;;;5.41;82.26;101312.88;5097549;27;20099;-82
2023/01/14 03:44:03;;;;;;;20.35;10.07;;;;;;;5.43;81.65;101319.84;5112865;27;20104;-82
2023/01/14 03:46:29;;;;;;;16.75;10.38;;;;;;;5.42;81.62;101315.44;5113377;28;20024;-84
2023/01/14 03:48:55;;;;;;;14.48;8.98;;;;;;;5.44;81.86;101313.56;5113242;28;20100;-82
2023/01/14 03:51:45;;;;;;;17.58;10.23;;;;;;;5.55;81.88;101314.84;5117639;27;20031;-82
2023/01/14 03:54:43;;;;;;;15.20;9.65;;;;;;;5.56;81.84;101319.25;5133329;27;20042;-81
2023/01/14 03:57:12;;;;;;;15.95;9.43;;;;;;;5.55;81.58;101320.19;5115007;27;20072;-81
2023/01/14 04:00:10;;;;;;;15.82;9.40;;;;;;;5.59;81.88;101321.75;5133417;27;20456;-81
2023/01/14 04:02:37;;;;;;;14.95;9.27;;;;;;;5.57;81.32;101326.28;5129532;27;20023;-83
2023/01/14 04:05:03;;;;;;;16.35;10.27;;;;;;;5.51;81.38;101327.47;5133455;27;20471;-83
2023/01/14 04:07:29;;;;;;;15.20;9.25;;;;;;;5.47;81.42;101321.41;5133560;27;20023;-81
2023/01/14 04:09:54;;;;;;;16.02;10.38;;;;;;;5.50;81.22;101318.59;5114297;27;20125;-81
2023/01/14 04:12:20;;;;;;;19.98;10.75;;;;;;;5.52;81.10;101323.88;5120063;27;20028;-82
2023/01/14 04:17:29;;;;;;;16.58;10.45;;;;;;;5.58;80.96;101320.03;5133125;27;20034;-81
2023/01/14 04:19:55;;;;;;;17.08;9.98;;;;;;;5.59;80.12;101319.09;5132921;27;20028;-82
2023/01/14 04:22:20;;;;;;;18.77;11.25;;;;;;;5.59;79.89;101327.09;5106555;27;20414;-82
2023/01/14 04:24:46;;;;;;;16.27;10.05;;;;;;;5.43;79.89;101306.53;5092285;28;20020;-81
2023/01/14 04:27:11;;;;;;;22.13;12.05;;;;;;;5.49;80.10;101319.56;5092204;28;20077;-81
2023/01/14 04:29:36;;;;;;;17.42;11.05;;;;;;;5.40;80.04;101317.34;5091814;28;20115;-82
2023/01/14 04:32:02;;;;;;;17.17;10.32;;;;;;;5.43;80.17;101327.84;5111502;27;20065;-82
2023/01/14 04:34:27;;;;;;;17.90;11.00;;;;;;;5.47;81.10;101325.91;5093376;28;20458;-82
2023/01/14 04:36:53;;;;;;;17.45;10.63;;;;;;;5.53;81.22;101322.06;5112397;28;20107;-81
2023/01/14 04:39:18;;;;;;;18.92;10.80;;;;;;;5.58;81.47;101322.69;5112363;28;20050;-82
2023/01/14 04:44:28;;;;;;;25.75;11.10;;;;;;;5.52;80.39;101328.34;5112296;28;20502;-82
2023/01/14 04:46:54;;;;;;;16.63;10.32;;;;;;;5.60;80.78;101336.81;5111468;28;20023;-82
2023/01/14 04:49:19;;;;;;;17.65;10.15;;;;;;;5.71;80.64;101339.84;5088618;28;20032;-82
2023/01/14 04:51:44;;;;;;;18.02;10.80;;;;;;;5.74;80.48;101339.69;5091483;28;20052;-82
2023/01/14 04:54:10;;;;;;;13.48;9.07;;;;;;;5.66;80.43;101331.16;5091163;28;20020;-82
2023/01/14 04:56:35;;;;;;;15.75;9.52;;;;;;;5.71;80.72;101332.69;5092420;28;20032;-83
2023/01/14 04:59:03;;;;;;;16.38;9.77;;;;;;;5.80;80.12;101345.56;5110260;27;20038;-83
2023/01/14 05:01:32;;;;;;;17.33;9.68;;;;;;;5.75;79.77;101336.06;5131460;27;20037;-81
2023/01/14 05:04:00;;;;;;;17.13;9.45;;;;;;;5.73;79.03;101345.94;5132418;27;20028;-82
2023/01/14 05:06:27;;;;;;;14.05;9.02;;;;;;;5.74;79.29;101339.69;5132230;27;20027;-81
2023/01/14 05:08:53;;;;;;;16.02;10.45;;;;;;;5.67;79.38;101339.13;5128503;27;20184;-81
2023/01/14 05:11:19;;;;;;;18.27;10.55;;;;;;;5.64;79.49;101338.41;5112084;27;20027;-81
2023/01/14 05:13:44;;;;;;;17.95;10.45;;;;;;;5.57;79.69;101342.28;5111476;28;20028;-81
2023/01/14 05:16:09;;;;;;;14.50;9.40;;;;;;;5.55;80.02;101346.84;5111247;28;20039;-82
2023/01/14 05:18:35;;;;;;;18.80;11.48;;;;;;;5.43;80.32;101335.00;5111373;28;20474;-81
2023/01/14 05:21:01;;;;;;;18.55;10.73;;;;;;;5.42;80.69;101336.78;5115551;27;20490;-82
2023/01/14 05:23:26;;;;;;;16.10;10.38;;;;;;;5.49;80.86;101335.56;5111783;28;20023;-81
2023/01/14 05:25:52;;;;;;;24.45;13.85;;;;;;;5.50;81.03;101337.25;5092832;28;20500;-81
2023/01/14 05:28:19;;;;;;;20.33;12.20;;;;;;;5.48;81.22;101336.50;5111412;28;20035;-83
2023/01/14 05:30:45;;;;;;;23.38;12.05;;;;;;;5.50;81.31;101331.94;5098471;27;20112;-82
2023/01/14 05:33:11;;;;;;;26.48;13.10;;;;;;;5.35;81.49;101330.00;5112245;27;20050;-83
2023/01/14 05:35:37;;;;;;;32.17;16.13;;;;;;;5.39;82.01;101328.94;5130775;27;20031;-83
2023/01/14 05:38:04;;;;;;;24.92;12.90;;;;;;;5.51;82.01;101332.81;5132076;27;20019;-83
2023/01/14 05:40:29;;;;;;;21.95;13.13;;;;;;;5.57;82.27;101331.63;5124856;27;20024;-83
2023/01/14 05:45:51;;;;;;;26.95;13.05;;;;;;;5.74;81.87;101334.34;5111157;28;20030;-82
2023/01/14 05:48:19;;;;;;;20.13;10.88;;;;;;;5.83;81.65;101344.56;5111351;28;20479;-82
2023/01/14 05:50:45;;;;;;;24.55;12.90;;;;;;;5.83;81.59;101350.75;5112229;27;20116;-82
2023/01/14 05:53:10;;;;;;;24.55;13.73;;;;;;;5.94;81.73;101347.56;5111051;28;20471;-82
2023/01/14 05:55:37;;;;;;;22.42;12.25;;;;;;;5.87;82.01;101322.97;5111666;28;20023;-82
2023/01/14 05:58:04;;;;;;;23.70;12.52;;;;;;;5.94;81.17;101332.41;5110817;28;20528;-83
2023/01/14 06:06:22;;;;;;;22.83;12.27;;;;;;;5.88;80.96;101339.88;5115561;28;20031;-88
2023/01/14 06:08:52;;;;;;;23.55;13.52;;;;;;;5.87;80.89;101347.00;5113867;28;20038;-85
2023/01/14 06:11:19;;;;;;;21.08;12.45;;;;;;;5.82;80.17;101334.81;5096344;28;20485;-87
2023/01/14 06:13:45;;;;;;;18.95;10.57;;;;;;;5.86;79.93;101344.44;5118236;28;20024;-78
2023/01/14 06:16:11;;;;;;;27.25;11.45;;;;;;;5.85;80.29;101346.22;5117848;28;20046;-83
2023/01/14 06:18:42;;;;;;;30.55;11.18;;;;;;;5.79;80.36;101340.28;5135454;27;20027;-89
2023/01/14 06:21:19;;;;;;;29.55;11.68;;;;;;;5.87;80.55;101356.84;5138398;27;20027;-85
2023/01/14 06:23:45;;;;;;;24.52;13.65;;;;;;;5.89;80.41;101354.97;5137265;27;20042;-88
2023/01/14 06:26:16;;;;;;;21.63;11.82;;;;;;;5.92;80.24;101352.13;5136678;27;20038;-86
2023/01/14 06:28:42;;;;;;;18.02;10.05;;;;;;;5.81;79.46;101346.44;5138594;27;20144;-86
2023/01/14 06:31:15;;;;;;;23.50;10.38;;;;;;;5.84;79.32;101340.97;5139567;27;20023;-88
2023/01/14 06:33:42;;;;;;;16.40;9.30;;;;;;;5.80;78.88;101334.03;5138393;27;20138;-86
2023/01/14 06:36:09;;;;;;;15.38;9.55;;;;;;;5.83;78.81;101342.75;5125206;27;20028;-87
2023/01/14 06:38:36;;;;;;;19.00;10.48;;;;;;;5.82;78.66;101348.16;5120399;27;20020;-90
2023/01/14 06:41:03;;;;;;;23.95;12.32;;;;;;;5.82;78.93;101356.16;5132035;27;20051;-86
2023/01/14 06:43:29;;;;;;;23.65;11.20;;;;;;;5.69;78.97;101341.72;5154843;27;20039;-87
2023/01/14 06:45:56;;;;;;;23.08;12.18;;;;;;;5.72;79.48;101347.75;5156243;27;20091;-83
2023/01/14 06:48:22;;;;;;;28.13;14.57;;;;;;;5.73;79.43;101340.59;5152040;27;20047;-88
2023/01/14 06:50:48;;;;;;;23.48;11.38;;;;;;;5.68;79.59;101339.97;5148043;27;20036;-88
2023/01/14 06:53:13;;;;;;;21.38;12.63;;;;;;;5.70;80.25;101343.44;5107923;27;20056;-89
2023/01/14 06:55:39;;;;;;;55.92;26.55;;;;;;;5.69;80.35;101331.06;5122989;27;20031;-89
2023/01/14 06:58:04;;;;;;;42.50;15.55;;;;;;;5.54;80.34;101321.09;5134031;27;20024;-88
2023/01/14 07:00:29;;;;;;;19.52;11.30;;;;;;;5.49;80.65;101335.56;5124640;28;20027;-88
2023/01/14 07:02:55;;;;;;;21.95;13.25;;;;;;;5.46;81.58;101341.03;5122128;28;20134;-88
2023/01/14 07:05:21;;;;;;;23.60;13.00;;;;;;;5.69;81.30;101344.41;5105143;27;20020;-92
2023/01/14 07:07:48;;;;;;;22.67;12.38;;;;;;;5.73;80.99;101336.13;5124159;27;20441;-91
2023/01/14 07:10:15;;;;;;;29.27;14.70;;;;;;;5.86;81.04;101344.44;5126962;27;20116;-93
2023/01/14 07:12:49;;;;;;;24.27;11.80;;;;;;;5.74;80.94;101319.19;5131588;28;20067;-92
2023/01/14 07:15:16;;;;;;;23.48;10.93;;;;;;;5.88;80.19;101335.41;5114370;27;20020;-92
2023/01/14 07:17:43;;;;;;;16.75;10.32;;;;;;;5.96;79.85;101351.03;5098837;28;20032;-88
2023/01/14 07:20:09;;;;;;;21.65;12.40;;;;;;;5.96;79.25;101345.69;5092142;28;20047;-88
2023/01/14 07:22:35;;;;;;;19.50;10.90;;;;;;;6.10;79.43;101348.53;5076634;28;20040;-89
2023/01/14 07:25:03;;;;;;;18.17;10.20;;;;;;;6.15;79.24;101341.13;5078414;28;20032;-87
2023/01/14 07:27:29;;;;;;;16.90;10.68;;;;;;;6.21;79.16;101345.31;5081924;28;20044;-88
2023/01/14 07:29:56;;;;;;;18.63;11.82;;;;;;;5.98;78.97;101344.69;5067719;28;20484;-93
2023/01/14 07:32:22;;;;;;;14.27;8.57;;;;;;;6.22;79.00;101355.03;5090205;28;20062;-96
2023/01/14 07:34:47;;;;;;;14.57;9.13;;;;;;;5.89;78.64;101317.59;5089526;28;20033;-92
2023/01/14 07:37:16;;;;;;;16.15;10.15;;;;;;;5.95;78.31;101317.25;5084946;28;20104;-94
2023/01/14 07:39:41;;;;;;;16.75;9.10;;;;;;;6.02;78.20;101340.06;5082962;28;20024;-93
2023/01/14 07:42:07;;;;;;;20.27;9.15;;;;;;;6.24;77.51;101362.00;5076288;28;20040;-88
2023/01/14 07:44:32;;;;;;;14.52;9.10;;;;;;;6.22;77.39;101349.69;5059353;28;20025;-89
2023/01/14 07:46:58;;;;;;;18.63;10.80;;;;;;;6.35;77.25;101369.47;5056870;28;20755;-89
2023/01/14 07:49:24;;;;;;;16.08;9.52;;;;;;;6.26;77.13;101360.16;5054367;28;20030;-88
2023/01/14 07:51:50;;;;;;;15.35;9.52;;;;;;;6.34;77.79;101379.31;5057354;28;20063;-90
2023/01/14 07:54:17;;;;;;;15.57;9.30;;;;;;;6.45;77.75;101368.91;5055510;28;20542;-90
2023/01/14 07:56:43;;;;;;;20.83;10.02;;;;;;;6.50;77.67;101364.19;5019046;28;20127;-89
2023/01/14 07:59:09;;;;;;;18.10;10.82;;;;;;;6.67;77.32;101381.13;5014781;28;20065;-90
2023/01/14 08:01:37;;;;;;;15.10;9.82;;;;;;;6.51;76.51;101371.25;5018417;28;20049;-90
2023/01/14 08:04:02;;;;;;;18.27;10.48;;;;;;;6.42;76.51;101366.41;5033089;28;20116;-89
2023/01/14 08:06:29;;;;;;;20.67;9.45;;;;;;;6.62;76.42;101384.06;5033540;28;20076;-90
2023/01/14 08:08:54;;;;;;;19.08;9.20;;;;;;;6.46;76.24;101372.44;5022351;28;20033;-89
2023/01/14 08:11:20;;;;;;;18.63;11.68;;;;;;;6.61;75.77;101386.81;5038148;28;20041;-92
2023/01/14 08:13:45;;;;;;;19.80;11.70;;;;;;;6.63;75.49;101376.91;5019324;28;20089;-89
2023/01/14 08:16:13;;;;;;;22.20;9.30;;;;;;;6.63;75.06;101382.25;5019235;28;20122;-92
2023/01/14 08:18:38;;;;;;;16.25;9.07;;;;;;;6.73;75.13;101386.19;5033488;28;20088;-83
2023/01/14 08:21:06;;;;;;;14.05;9.45;;;;;;;6.69;74.82;101395.31;5034709;28;20033;-84
2023/01/14 08:23:33;;;;;;;15.27;10.15;;;;;;;6.61;75.28;101392.16;5033394;28;20025;-90
2023/01/14 08:26:04;;;;;;;14.40;8.90;;;;;;;6.70;75.18;101387.19;5028771;28;20037;-78
2023/01/14 08:28:29;;;;;;;22.92;9.77;;;;;;;6.63;75.40;101390.28;5080273;28;20047;-77
2023/01/14 08:31:05;;;;;;;21.17;11.00;;;;;;;6.66;75.26;101384.78;5091024;28;20032;-80
2023/01/14 08:33:32;;;;;;;35.03;12.63;;;;;;;6.75;75.24;101387.81;5091463;28;20051;-78
2023/01/14 08:36:05;;;;;;;21.77;10.50;;;;;;;6.70;74.45;101389.84;5091763;28;20032;-77
2023/01/14 08:38:31;;;;;;;18.88;9.13;;;;;;;6.78;74.23;101392.13;5096883;28;20016;-80
2023/01/14 08:40:57;;;;;;;30.42;12.13;;;;;;;6.81;74.01;101389.31;5095379;28;20032;-83
2023/01/14 08:43:22;;;;;;;23.77;12.35;;;;;;;6.92;74.52;101397.59;5098532;28;20046;-78
2023/01/14 08:45:50;;;;;;;25.50;13.48;;;;;;;6.98;75.41;101391.91;5096681;28;20062;-79
2023/01/14 08:48:15;;;;;;;19.10;10.55;;;;;;;6.97;75.04;101384.84;5103178;28;20028;-79
2023/01/14 08:50:41;;;;;;;20.50;11.90;;;;;;;6.94;74.90;101380.50;5108292;28;20036;-87
2023/01/14 08:53:06;;;;;;;21.95;13.73;;;;;;;6.87;74.99;101362.22;5100915;28;20643;-90
2023/01/14 08:55:32;;;;;;;19.40;11.70;;;;;;;6.94;75.12;101369.81;5094159;28;20468;-89
2023/01/14 08:57:57;;;;;;;22.13;11.77;;;;;;;7.00;74.94;101374.00;5075808;28;20025;-89
2023/01/14 09:00:24;;;;;;;18.95;11.30;;;;;;;6.97;74.18;101358.13;5093662;28;20024;-90
2023/01/14 09:02:51;;;;;;;27.48;10.75;;;;;;;7.13;74.03;101377.69;5094821;28;20090;-88
2023/01/14 09:05:17;;;;;;;19.42;11.25;;;;;;;6.92;73.37;101379.75;5093824;28;20031;-89
2023/01/14 09:18:41;;;;;;;29.35;12.45;;;;;;;6.81;75.80;101343.84;5097864;28;20106;-88
2023/01/14 09:21:06;;;;;;;30.15;12.50;;;;;;;6.80;75.57;101351.00;5093771;28;20028;-87
2023/01/14 09:23:32;;;;;;;30.75;9.95;;;;;;;6.89;75.65;101346.97;5097503;28;20028;-88
2023/01/14 09:25:57;;;;;;;21.50;10.60;;;;;;;6.75;75.44;101331.69;5075221;28;20088;-89
2023/01/14 09:28:23;;;;;;;31.30;11.57;;;;;;;6.87;75.22;101336.34;5049928;28;20124;-89
2023/01/14 09:30:48;;;;;;;20.27;11.60;;;;;;;6.82;75.18;101321.53;5051344;28;20095;-88
2023/01/14 09:33:13;;;;;;;28.52;10.30;;;;;;;6.88;74.74;101331.88;5049068;28;20424;-88
2023/01/14 09:35:39;;;;;;;31.95;12.25;;;;;;;6.82;74.96;101342.91;5050318;28;20479;-87
2023/01/14 09:38:04;;;;;;;21.15;10.13;;;;;;;6.79;74.89;101319.03;5049112;28;20125;-90
2023/01/14 09:40:30;;;;;;;35.83;11.23;;;;;;;6.98;74.85;101333.94;5049565;28;20033;-88
2023/01/14 09:42:57;;;;;;;19.13;10.82;;;;;;;7.03;75.57;101325.69;5050668;28;20037;-89
2023/01/14 09:45:28;;;;;;;20.38;11.05;;;;;;;7.03;75.48;101328.34;5051682;28;20415;-88
2023/01/14 09:47:58;;;;;;;34.33;10.77;;;;;;;7.11;75.51;101329.66;5050815;28;20081;-89
2023/01/14 09:50:53;;;;;;;23.48;11.38;;;;;;;7.10;75.11;101330.59;5049669;28;20036;-90
2023/01/14 09:53:44;;;;;;;18.33;10.00;;;;;;;7.19;75.29;101339.91;5049883;28;20132;-89
2023/01/14 09:56:24;;;;;;;21.15;11.88;;;;;;;7.23;74.77;101329.91;4972458;28;20754;-89
2023/01/14 09:58:57;;;;;;;33.38;12.02;;;;;;;7.22;74.97;101336.19;4982714;28;20068;-87
2023/01/14 10:01:28;;;;;;;26.75;11.60;;;;;;;7.21;74.60;101335.34;5010963;28;20068;-89
2023/01/14 10:04:16;;;;;;;42.97;12.45;;;;;;;7.22;74.35;101321.00;5010081;28;20050;-88
2023/01/14 10:06:43;;;;;;;33.42;11.90;;;;;;;7.11;74.31;101310.06;5011447;28;20045;-91
2023/01/14 10:09:18;;;;;;;30.98;10.90;;;;;;;7.18;74.66;101327.50;5010583;28;20029;-88
2023/01/14 10:11:45;;;;;;;27.02;8.73;;;;;;;7.27;74.74;101321.63;5010210;28;20042;-86
2023/01/14 10:14:17;;;;;;;26.70;10.07;;;;;;;7.16;75.59;101307.97;4993185;28;20041;-86
2023/01/14 10:16:45;;;;;;;26.00;10.73;;;;;;;7.32;75.23;101306.16;5009435;28;20072;-86
2023/01/14 10:19:18;;;;;;;25.35;10.02;;;;;;;7.32;75.30;101306.16;5009241;28;20030;-85
2023/01/14 10:21:45;;;;;;;36.28;9.88;;;;;;;7.33;75.08;101302.56;5010579;28;20038;-88
2023/01/14 10:24:13;;;;;;;18.77;8.82;;;;;;;7.40;75.74;101301.22;5010648;28;20092;-89
2023/01/14 10:26:39;;;;;;;23.05;9.98;;;;;;;7.47;75.31;101307.97;5011501;28;20034;-89
2023/01/14 10:29:17;;;;;;;15.75;8.82;;;;;;;7.46;74.94;101308.06;5010238;28;20093;-88
2023/01/14 10:31:49;;;;;;;19.77;10.80;;;;;;;7.47;74.98;101310.63;5000015;28;20133;-86
2023/01/14 10:34:21;;;;;;;19.57;8.93;;;;;;;7.48;75.11;101303.47;5081252;28;20024;-88
2023/01/14 10:36:47;;;;;;;;;;;;;;;7.21;74.76;101303.25;5100851;28;20254;-86
2023/01/14 10:39:13;;;;;;;27.92;9.05;;;;;;;7.14;75.56;101299.19;5101701;28;20259;-88
2023/01/14 10:41:50;;;;;;;22.33;12.10;;;;;;;7.20;75.63;101274.75;5102500;28;20028;-88
2023/01/14 10:44:29;;;;;;;16.27;8.93;;;;;;;7.33;75.23;101291.84;5114848;28;20024;-89
2023/01/14 10:47:02;;;;;;;15.50;8.45;;;;;;;7.24;75.71;101281.69;5114919;28;20043;-85
2023/01/14 10:50:01;;;;;;;26.15;9.65;;;;;;;7.27;75.65;101286.84;5097451;28;20043;-88
2023/01/14 10:52:31;;;;;;;17.88;10.40;;;;;;;7.35;76.20;101278.38;5037524;28;20041;-90
2023/01/14 10:55:10;;;;;;;21.02;9.98;;;;;;;7.34;76.06;101277.50;5032730;28;20033;-88
2023/01/14 10:57:39;;;;;;;15.18;9.55;;;;;;;7.35;76.09;101273.00;5033028;28;20044;-88
2023/01/14 11:00:09;;;;;;;19.92;9.15;;;;;;;7.29;76.22;101258.19;5019103;28;20048;-86
2023/01/14 11:02:56;;;;;;;28.23;9.57;;;;;;;7.42;75.97;101269.91;5017554;28;20547;-92
2023/01/14 11:05:25;;;;;;;24.85;9.85;;;;;;;7.52;75.84;101271.06;4980451;28;20034;-93
2023/01/14 11:07:52;;;;;;;16.85;10.13;;;;;;;7.55;75.60;101264.72;4993825;28;20170;-91
2023/01/14 11:10:31;;;;;;;26.27;11.52;;;;;;;7.58;75.29;101270.72;4996113;28;20042;-90
2023/01/14 11:13:15;;;;;;;21.42;10.65;;;;;;;7.45;75.04;101269.72;4984188;28;20097;-93
2023/01/14 11:15:45;;;;;;;15.38;8.90;;;;;;;7.48;75.65;101264.19;4984008;28;20039;-92
2023/01/14 11:18:25;;;;;;;22.63;12.75;;;;;;;7.45;75.51;101261.69;4982572;28;20030;-92
2023/01/14 11:20:55;;;;;;;40.33;15.70;;;;;;;7.39;75.36;101264.75;4995454;28;20042;-82
2023/01/14 11:23:28;;;;;;;21.27;10.82;;;;;;;7.35;75.60;101257.81;4994898;28;20076;-87
2023/01/14 11:25:54;;;;;;;32.75;10.30;;;;;;;7.27;75.68;101246.72;4978167;28;20026;-89
2023/01/14 11:28:20;;;;;;;27.17;10.88;;;;;;;7.36;75.67;101259.56;4999570;28;20041;-91
2023/01/14 11:30:51;;;;;;;29.98;9.55;;;;;;;7.30;75.80;101257.25;5033310;28;20071;-89
2023/01/14 11:33:20;;;;;;;21.75;9.52;;;;;;;7.33;75.13;101265.09;5015780;28;20036;-89
2023/01/14 11:35:51;;;;;;;31.20;9.50;;;;;;;7.37;75.45;101271.13;5018860;28;20144;-88
2023/01/14 11:38:21;;;;;;;14.00;7.47;;;;;;;7.30;75.05;101262.59;5032646;28;20040;-86
2023/01/14 11:43:50;;;;;;;22.27;9.85;;;;;;;7.39;75.53;101258.50;5093898;28;20571;-89
2023/01/14 11:46:16;;;;;;;17.58;7.95;;;;;;;7.47;75.77;101262.47;5080004;28;20043;-89
2023/01/14 11:48:42;;;;;;;19.25;8.88;;;;;;;7.38;74.22;101268.34;5094841;28;20032;-89
2023/01/14 11:51:17;;;;;;;21.63;10.05;;;;;;;7.46;74.13;101281.31;5076170;28;20052;-87
2023/01/14 11:53:52;;;;;;;21.25;9.35;;;;;;;7.43;74.33;101282.31;5099360;28;20028;-86
2023/01/14 11:56:34;;;;;;;20.17;10.70;;;;;;;7.36;74.13;101270.28;5076852;28;20039;-88
2023/01/14 11:59:19;;;;;;;23.77;9.88;;;;;;;7.33;73.85;101265.09;5051381;28;20120;-89
2023/01/14 12:01:52;;;;;;;26.85;13.30;;;;;;;7.32;73.74;101271.38;5031891;28;20994;-87